Weather at Corryong Airport

Public forecast

Using degrees Celsius for public forecast. Weather courtesy of forecast.io.

Closest aviation weather report (METAR) to Corryong Airport

Closest report is Canberra International Airport, 82.6 nm (153.0 km) NE.

2023/02/04 15:00 (retrieved 25 minutes ago)

YSCB 041500Z AUTO 30009KT 9999 // NCD 13/07 Q1012 RF000/0000

Closest aviation forecast (TAF) to Corryong Airport

Closest forecast is Canberra International Airport, 82.6 nm (153.0 km) NE.

2023/02/04 15:38 (retrieved 0 seconds ago)

TAF YSCB 041408Z 0415/0512 30005KT CAVOK FM042300 32012KT CAVOK